createdAt,value
2022-10-09T02:00:52.962Z,1.10
2022-10-09T02:01:13.590Z,1.10
2022-10-09T02:01:34.274Z,1.20
2022-10-09T02:01:55.184Z,1.00
2022-10-09T02:02:18.553Z,1.10
2022-10-09T02:02:39.304Z,1.10
2022-10-09T02:02:59.951Z,1.10
2022-10-09T02:03:20.507Z,1.10
2022-10-09T02:03:41.101Z,1.10
2022-10-09T02:04:01.495Z,1.00
2022-10-09T02:04:22.076Z,0.90
2022-10-09T02:04:42.655Z,1.00
2022-10-09T02:05:03.236Z,0.90
2022-10-09T02:05:23.816Z,1.00
2022-10-09T02:05:44.395Z,0.90
2022-10-09T02:06:04.974Z,1.00
2022-10-09T02:06:25.560Z,1.10
2022-10-09T02:06:46.140Z,1.10
2022-10-09T02:07:06.726Z,1.10
2022-10-09T02:07:27.312Z,1.10
2022-10-09T02:07:47.893Z,1.00
2022-10-09T02:08:08.474Z,1.00
2022-10-09T02:08:29.056Z,1.00
2022-10-09T02:08:49.651Z,0.90
2022-10-09T02:09:10.232Z,0.80
2022-10-09T02:09:30.819Z,1.00
2022-10-09T02:09:51.212Z,0.90
2022-10-09T02:10:11.791Z,1.00
2022-10-09T02:10:32.377Z,1.00
2022-10-09T02:10:52.769Z,0.90
2022-10-09T02:11:13.350Z,0.90
2022-10-09T02:11:33.745Z,0.90
2022-10-09T02:11:54.327Z,1.00
2022-10-09T02:12:14.911Z,1.10
2022-10-09T02:12:35.497Z,1.10
2022-10-09T02:12:56.075Z,1.00
2022-10-09T02:13:16.653Z,1.00
2022-10-09T02:13:37.235Z,1.00
2022-10-09T02:13:57.831Z,1.10
2022-10-09T02:14:18.228Z,1.00
2022-10-09T02:14:38.807Z,1.00
2022-10-09T02:14:59.389Z,1.00
2022-10-09T02:15:19.974Z,0.90
2022-10-09T02:15:40.582Z,1.00
2022-10-09T02:16:01.199Z,0.90
2022-10-09T02:16:21.822Z,0.90
2022-10-09T02:16:42.398Z,1.00
2022-10-09T02:17:02.979Z,1.10
2022-10-09T02:17:23.565Z,0.80
2022-10-09T02:17:44.147Z,1.00
2022-10-09T02:18:04.727Z,1.00
2022-10-09T02:18:25.308Z,1.10
2022-10-09T02:18:45.886Z,1.20
2022-10-09T02:19:06.483Z,1.30
2022-10-09T02:19:27.069Z,1.10
2022-10-09T02:19:47.688Z,1.10
2022-10-09T02:20:08.258Z,1.00
2022-10-09T02:20:28.653Z,1.10
2022-10-09T02:20:49.256Z,1.10
2022-10-09T02:21:09.816Z,1.20
2022-10-09T02:21:30.397Z,0.90
2022-10-09T02:21:54.388Z,0.90
2022-10-09T02:22:15.214Z,1.10
2022-10-09T02:22:35.617Z,1.00
2022-10-09T02:22:56.003Z,0.80
2022-10-09T02:23:16.587Z,0.90
2022-10-09T02:23:37.165Z,0.90
2022-10-09T02:23:57.762Z,1.00
2022-10-09T02:24:18.349Z,1.00
2022-10-09T02:24:38.929Z,1.10
2022-10-09T02:24:59.509Z,0.90
2022-10-09T02:25:20.090Z,1.10
2022-10-09T02:25:40.678Z,0.90
2022-10-09T02:26:01.261Z,1.20
2022-10-09T02:26:21.841Z,1.00
2022-10-09T02:26:42.426Z,1.10
2022-10-09T02:27:03.007Z,1.30
2022-10-09T02:27:23.587Z,1.30
2022-10-09T02:27:44.167Z,1.10
2022-10-09T02:28:04.833Z,1.00
2022-10-09T02:28:25.459Z,1.10
2022-10-09T02:28:46.294Z,0.90
2022-10-09T02:29:06.930Z,1.00
2022-10-09T02:29:27.509Z,1.00
2022-10-09T02:29:48.090Z,1.30
2022-10-09T02:30:08.672Z,1.10
2022-10-09T02:30:29.257Z,1.10
2022-10-09T02:30:49.864Z,1.10
2022-10-09T02:31:10.397Z,1.10
2022-10-09T02:31:31.024Z,1.00
2022-10-09T02:31:51.593Z,1.00
2022-10-09T02:32:12.174Z,1.10
2022-10-09T02:32:32.756Z,1.30
2022-10-09T02:32:53.338Z,1.10
2022-10-09T02:33:13.918Z,1.00
2022-10-09T02:33:34.501Z,1.00
2022-10-09T02:33:55.082Z,1.10
2022-10-09T02:34:15.684Z,1.10
2022-10-09T02:34:36.264Z,1.00
2022-10-09T02:34:56.844Z,1.10
2022-10-09T02:35:17.430Z,1.10
2022-10-09T02:35:38.009Z,1.20
2022-10-09T02:35:58.595Z,1.20
2022-10-09T02:36:19.177Z,0.90
2022-10-09T02:36:39.756Z,0.90
2022-10-09T02:37:00.337Z,1.10
2022-10-09T02:37:20.918Z,1.00
2022-10-09T02:37:41.497Z,0.90
2022-10-09T02:38:02.082Z,1.10
2022-10-09T02:38:22.492Z,1.20
2022-10-09T02:38:43.078Z,1.20
2022-10-09T02:39:03.638Z,1.20
2022-10-09T02:39:24.234Z,1.00
2022-10-09T02:39:44.837Z,1.00
2022-10-09T02:40:10.437Z,1.10
2022-10-09T02:40:25.821Z,1.30
2022-10-09T02:40:46.212Z,1.30
2022-10-09T02:41:06.798Z,1.00
2022-10-09T02:41:27.189Z,1.10
2022-10-09T02:41:47.773Z,1.20
2022-10-09T02:42:08.356Z,1.20
2022-10-09T02:42:28.939Z,1.10
2022-10-09T02:42:49.931Z,1.10
2022-10-09T02:43:10.680Z,1.00
2022-10-09T02:43:31.261Z,0.90
2022-10-09T02:43:51.854Z,1.20
2022-10-09T02:44:12.434Z,1.00
2022-10-09T02:44:33.030Z,1.10
2022-10-09T02:44:53.610Z,0.90
2022-10-09T02:45:14.195Z,1.20
2022-10-09T02:45:34.777Z,1.10
2022-10-09T02:45:55.360Z,1.00
2022-10-09T02:46:16.017Z,1.30
2022-10-09T02:46:36.639Z,1.30
2022-10-09T02:46:56.982Z,1.20
2022-10-09T02:47:17.569Z,1.10
2022-10-09T02:47:38.149Z,1.20
2022-10-09T02:47:58.734Z,0.80
2022-10-09T02:48:19.129Z,1.00
2022-10-09T02:48:39.711Z,1.10
2022-10-09T02:49:00.295Z,1.00
2022-10-09T02:49:20.873Z,1.00
2022-10-09T02:49:41.482Z,1.00
2022-10-09T02:50:02.057Z,1.00
2022-10-09T02:50:22.640Z,1.00
2022-10-09T02:50:43.219Z,1.10
2022-10-09T02:51:03.807Z,0.90
2022-10-09T02:51:24.390Z,1.10
2022-10-09T02:51:44.976Z,1.10
2022-10-09T02:52:05.561Z,1.20
2022-10-09T02:52:26.144Z,1.00
2022-10-09T02:52:47.103Z,1.00
2022-10-09T02:53:07.858Z,0.90
2022-10-09T02:53:28.438Z,0.90
2022-10-09T02:53:49.020Z,1.10
2022-10-09T02:54:09.604Z,1.00
2022-10-09T02:54:30.188Z,0.90
2022-10-09T02:54:50.784Z,1.10
2022-10-09T02:55:11.382Z,1.10
2022-10-09T02:55:31.756Z,1.10
2022-10-09T02:55:52.344Z,1.00
2022-10-09T02:56:12.925Z,1.20
2022-10-09T02:56:37.960Z,1.10
2022-10-09T02:56:53.905Z,0.90
2022-10-09T02:57:14.487Z,0.80
2022-10-09T02:57:35.076Z,1.00
2022-10-09T02:57:55.649Z,1.00
2022-10-09T02:58:16.233Z,1.10
2022-10-09T02:58:36.819Z,1.20
2022-10-09T02:58:57.219Z,1.00
2022-10-09T02:59:17.601Z,1.00
2022-10-09T02:59:38.186Z,1.00
2022-10-09T02:59:58.781Z,1.10
2022-10-09T03:00:19.366Z,1.10
2022-10-09T03:00:39.951Z,1.30
2022-10-09T03:01:00.534Z,1.20
2022-10-09T03:01:21.215Z,1.00
2022-10-09T03:01:41.906Z,1.10
2022-10-09T03:02:02.703Z,1.20
2022-10-09T03:02:23.419Z,1.20
2022-10-09T03:02:44.221Z,1.00
2022-10-09T03:03:04.962Z,1.10
2022-10-09T03:03:25.559Z,1.00
2022-10-09T03:03:46.141Z,0.90
2022-10-09T03:04:06.722Z,1.10
2022-10-09T03:04:27.309Z,1.00
2022-10-09T03:04:47.914Z,0.90
2022-10-09T03:05:08.491Z,1.00
2022-10-09T03:05:29.070Z,1.10
2022-10-09T03:05:49.653Z,1.30
2022-10-09T03:06:10.231Z,1.30
2022-10-09T03:06:30.819Z,1.10
2022-10-09T03:06:51.399Z,1.20
2022-10-09T03:07:11.981Z,0.90
2022-10-09T03:07:32.567Z,1.00
2022-10-09T03:07:53.172Z,1.00
2022-10-09T03:08:13.734Z,0.90
2022-10-09T03:08:34.314Z,1.00
2022-10-09T03:08:54.895Z,1.00
2022-10-09T03:09:15.486Z,1.00
2022-10-09T03:09:36.069Z,1.20
2022-10-09T03:09:56.669Z,1.10
2022-10-09T03:10:17.246Z,1.10
2022-10-09T03:10:37.827Z,1.10
2022-10-09T03:10:58.419Z,0.90
2022-10-09T03:11:19.000Z,0.90
2022-10-09T03:11:39.396Z,1.10
2022-10-09T03:11:59.977Z,1.10
2022-10-09T03:12:20.559Z,1.10
2022-10-09T03:12:41.145Z,0.90
2022-10-09T03:13:01.726Z,0.70
2022-10-09T03:13:22.308Z,1.00
2022-10-09T03:13:42.889Z,1.10
2022-10-09T03:14:03.285Z,0.80
2022-10-09T03:14:23.863Z,0.80
2022-10-09T03:14:44.469Z,1.00
2022-10-09T03:15:05.048Z,1.00
2022-10-09T03:15:25.641Z,1.20
2022-10-09T03:15:46.321Z,1.10
2022-10-09T03:16:06.949Z,1.10
2022-10-09T03:16:27.645Z,1.10
2022-10-09T03:16:48.212Z,0.90
2022-10-09T03:17:08.796Z,0.90
2022-10-09T03:17:29.378Z,1.00
2022-10-09T03:17:49.955Z,1.10
2022-10-09T03:18:10.541Z,1.00
2022-10-09T03:18:31.121Z,1.10
2022-10-09T03:18:51.707Z,1.00
2022-10-09T03:19:12.289Z,1.20
2022-10-09T03:19:32.866Z,1.10
2022-10-09T03:19:53.465Z,0.90
2022-10-09T03:20:14.057Z,1.10
2022-10-09T03:20:34.631Z,1.20
2022-10-09T03:20:55.214Z,1.10
2022-10-09T03:21:15.797Z,1.00
2022-10-09T03:21:36.378Z,1.10
2022-10-09T03:21:56.958Z,1.10
2022-10-09T03:22:17.546Z,1.00
2022-10-09T03:22:38.126Z,1.00
2022-10-09T03:22:58.709Z,1.20
2022-10-09T03:23:19.286Z,1.20
2022-10-09T03:23:39.868Z,1.30
2022-10-09T03:24:00.448Z,1.00
2022-10-09T03:24:21.030Z,0.90
2022-10-09T03:24:41.436Z,0.90
2022-10-09T03:25:02.017Z,1.10
2022-10-09T03:25:22.601Z,1.10
2022-10-09T03:25:43.189Z,1.00
2022-10-09T03:26:03.770Z,1.10
2022-10-09T03:26:24.353Z,1.20
2022-10-09T03:26:44.935Z,1.10
2022-10-09T03:27:05.521Z,1.20
2022-10-09T03:27:26.102Z,1.10
2022-10-09T03:27:46.686Z,1.10
2022-10-09T03:28:07.327Z,1.20
2022-10-09T03:28:28.013Z,1.10
2022-10-09T03:28:48.764Z,1.10
2022-10-09T03:29:09.354Z,0.90
2022-10-09T03:29:29.940Z,1.00
2022-10-09T03:29:50.536Z,0.90
2022-10-09T03:30:11.124Z,1.00
2022-10-09T03:30:31.708Z,1.00
2022-10-09T03:30:52.302Z,0.90
2022-10-09T03:31:22.595Z,1.00
2022-10-09T03:31:52.014Z,1.20
2022-10-09T03:31:53.847Z,1.10
2022-10-09T03:32:14.621Z,1.00
2022-10-09T03:32:35.257Z,0.90
2022-10-09T03:32:55.842Z,0.90
2022-10-09T03:33:16.439Z,1.10
2022-10-09T03:33:37.021Z,1.10
2022-10-09T03:33:57.601Z,1.20
2022-10-09T03:34:18.177Z,1.20
2022-10-09T03:34:38.598Z,1.30
2022-10-09T03:34:59.176Z,1.20
2022-10-09T03:35:19.761Z,1.10
2022-10-09T03:35:40.339Z,1.10
2022-10-09T03:36:00.925Z,1.10
2022-10-09T03:36:21.316Z,0.90
2022-10-09T03:36:41.896Z,0.90
2022-10-09T03:37:02.483Z,1.10
2022-10-09T03:37:23.059Z,1.00
2022-10-09T03:37:43.635Z,0.90
2022-10-09T03:38:04.223Z,1.10
2022-10-09T03:38:24.793Z,1.00
2022-10-09T03:38:45.376Z,1.20
2022-10-09T03:39:05.961Z,1.00
2022-10-09T03:39:26.358Z,1.10
2022-10-09T03:39:46.949Z,1.00
2022-10-09T03:40:07.532Z,1.00
2022-10-09T03:40:28.116Z,1.00
2022-10-09T03:40:48.696Z,0.90
2022-10-09T03:41:09.283Z,1.10
2022-10-09T03:41:29.873Z,0.80
2022-10-09T03:41:50.453Z,1.10
2022-10-09T03:42:11.035Z,1.20
2022-10-09T03:42:31.615Z,0.90
2022-10-09T03:42:52.297Z,0.90
2022-10-09T03:43:12.878Z,0.80
2022-10-09T03:43:33.461Z,1.10
2022-10-09T03:43:53.861Z,1.00
2022-10-09T03:44:14.444Z,0.90
2022-10-09T03:44:35.039Z,0.90
2022-10-09T03:44:55.630Z,1.00
2022-10-09T03:45:16.209Z,1.20
2022-10-09T03:45:36.792Z,0.90
2022-10-09T03:46:00.909Z,0.90
2022-10-09T03:46:17.841Z,1.20
2022-10-09T03:46:38.474Z,1.20
2022-10-09T03:46:59.120Z,1.20
2022-10-09T03:47:19.695Z,1.00
2022-10-09T03:47:40.276Z,1.10
2022-10-09T03:48:00.855Z,1.10
2022-10-09T03:48:21.440Z,1.10
2022-10-09T03:48:42.018Z,1.20
2022-10-09T03:49:02.415Z,1.40
2022-10-09T03:49:23.001Z,1.10
2022-10-09T03:49:43.600Z,1.00
2022-10-09T03:50:04.178Z,1.20
2022-10-09T03:50:24.760Z,1.20
2022-10-09T03:50:45.342Z,1.00
2022-10-09T03:51:05.926Z,1.00
2022-10-09T03:51:26.509Z,0.90
2022-10-09T03:51:47.091Z,0.90
2022-10-09T03:52:07.679Z,1.00
2022-10-09T03:52:28.277Z,1.20
2022-10-09T03:52:49.133Z,1.20
2022-10-09T03:53:09.802Z,1.10
2022-10-09T03:53:30.388Z,0.80
2022-10-09T03:53:50.974Z,0.90
2022-10-09T03:54:11.548Z,1.00
2022-10-09T03:54:32.146Z,1.20
2022-10-09T03:54:52.728Z,1.00
2022-10-09T03:55:13.327Z,1.00
2022-10-09T03:55:33.897Z,1.10
2022-10-09T03:55:54.479Z,1.10
2022-10-09T03:56:15.060Z,1.00
2022-10-09T03:56:35.642Z,0.80
2022-10-09T03:56:56.225Z,0.90
2022-10-09T03:57:16.805Z,1.00
2022-10-09T03:57:37.393Z,1.00
2022-10-09T03:57:57.971Z,1.00
2022-10-09T03:58:18.553Z,0.90
2022-10-09T03:58:39.141Z,0.90
2022-10-09T03:58:59.532Z,0.90
2022-10-09T03:59:20.113Z,1.00
2022-10-09T03:59:40.706Z,1.10
2022-10-09T04:00:01.289Z,1.00
2022-10-09T04:00:21.870Z,1.00
2022-10-09T04:00:42.479Z,1.00
2022-10-09T04:01:03.177Z,1.00
2022-10-09T04:01:23.803Z,0.90
2022-10-09T04:01:44.468Z,1.00
2022-10-09T04:02:05.028Z,1.10
2022-10-09T04:02:25.656Z,1.00
2022-10-09T04:02:46.621Z,0.90
2022-10-09T04:03:06.715Z,1.00
2022-10-09T04:03:27.283Z,1.10
2022-10-09T04:03:47.860Z,0.90
2022-10-09T04:04:08.446Z,1.00
2022-10-09T04:04:29.038Z,1.00
2022-10-09T04:04:49.621Z,0.90
2022-10-09T04:05:10.198Z,1.10
2022-10-09T04:05:30.790Z,1.10
2022-10-09T04:05:51.366Z,0.90
2022-10-09T04:06:11.946Z,1.00
2022-10-09T04:06:32.346Z,1.00
2022-10-09T04:06:52.928Z,0.90
2022-10-09T04:07:13.513Z,0.90
2022-10-09T04:07:34.107Z,0.90
2022-10-09T04:07:54.690Z,0.90
2022-10-09T04:08:15.280Z,1.10
2022-10-09T04:08:35.860Z,1.00
2022-10-09T04:08:56.449Z,1.10
2022-10-09T04:09:17.040Z,1.00
2022-10-09T04:09:37.635Z,1.00
2022-10-09T04:09:58.218Z,1.10
2022-10-09T04:10:18.799Z,1.00
2022-10-09T04:10:39.205Z,1.30
2022-10-09T04:10:59.776Z,1.10
2022-10-09T04:11:20.363Z,1.00
2022-10-09T04:11:40.950Z,1.10
2022-10-09T04:12:01.528Z,1.20
2022-10-09T04:12:22.119Z,1.00
2022-10-09T04:12:42.705Z,1.10
2022-10-09T04:13:03.288Z,1.20
2022-10-09T04:13:23.681Z,1.10
2022-10-09T04:13:44.267Z,1.00
2022-10-09T04:14:04.848Z,0.90
2022-10-09T04:14:25.257Z,1.00
2022-10-09T04:14:45.834Z,1.10
2022-10-09T04:15:06.243Z,1.10
2022-10-09T04:15:26.812Z,1.10
2022-10-09T04:15:47.209Z,1.20
2022-10-09T04:16:07.805Z,1.00
2022-10-09T04:16:28.423Z,0.80
2022-10-09T04:16:49.034Z,1.10
2022-10-09T04:17:09.593Z,1.10
2022-10-09T04:17:30.178Z,0.90
2022-10-09T04:17:50.761Z,0.80
2022-10-09T04:18:11.343Z,0.90
2022-10-09T04:18:31.923Z,1.20
2022-10-09T04:18:52.505Z,1.00
2022-10-09T04:19:13.097Z,1.10
2022-10-09T04:19:33.682Z,1.00
2022-10-09T04:19:54.268Z,0.90
2022-10-09T04:20:14.848Z,0.80
2022-10-09T04:20:35.431Z,0.90
2022-10-09T04:20:56.019Z,1.00
2022-10-09T04:21:16.595Z,1.00
2022-10-09T04:21:36.989Z,0.80
2022-10-09T04:21:57.568Z,0.90
2022-10-09T04:22:18.151Z,1.00
2022-10-09T04:22:38.890Z,0.90
2022-10-09T04:22:59.472Z,0.90
2022-10-09T04:23:20.057Z,0.90
2022-10-09T04:23:40.641Z,1.10
2022-10-09T04:24:01.210Z,1.00
2022-10-09T04:24:21.811Z,0.90
2022-10-09T04:24:42.394Z,0.90
2022-10-09T04:25:02.972Z,1.00
2022-10-09T04:25:23.550Z,1.10
2022-10-09T04:25:44.125Z,0.80
2022-10-09T04:26:04.706Z,0.90
2022-10-09T04:26:25.288Z,0.90
2022-10-09T04:26:45.875Z,1.00
2022-10-09T04:27:06.453Z,0.90
2022-10-09T04:27:27.072Z,0.90
2022-10-09T04:27:47.647Z,0.80
2022-10-09T04:28:08.131Z,0.80
2022-10-09T04:28:28.808Z,0.90
2022-10-09T04:28:49.477Z,1.00
2022-10-09T04:29:10.035Z,1.10
2022-10-09T04:29:30.447Z,0.90
2022-10-09T04:29:51.033Z,0.80
2022-10-09T04:30:11.615Z,0.90
2022-10-09T04:30:32.191Z,1.00
2022-10-09T04:30:52.774Z,1.10
2022-10-09T04:31:13.417Z,0.90
2022-10-09T04:31:34.137Z,0.90
2022-10-09T04:31:54.808Z,0.90
2022-10-09T04:32:15.395Z,1.00
2022-10-09T04:32:35.982Z,1.00
2022-10-09T04:32:56.561Z,0.90
2022-10-09T04:33:17.149Z,1.00
2022-10-09T04:33:37.728Z,1.00
2022-10-09T04:33:58.308Z,0.90
2022-10-09T04:34:18.727Z,0.90
2022-10-09T04:34:39.304Z,1.10
2022-10-09T04:34:59.891Z,1.10
2022-10-09T04:35:20.481Z,0.90
2022-10-09T04:35:41.057Z,1.00
2022-10-09T04:36:01.456Z,1.00
2022-10-09T04:36:22.037Z,0.90
2022-10-09T04:36:42.613Z,0.90
2022-10-09T04:37:03.007Z,0.90
2022-10-09T04:37:23.403Z,0.90
2022-10-09T04:37:43.989Z,1.00
2022-10-09T04:38:04.576Z,1.00
2022-10-09T04:38:25.165Z,1.10
2022-10-09T04:38:45.737Z,1.00
2022-10-09T04:39:06.327Z,1.00
2022-10-09T04:39:26.923Z,1.00
2022-10-09T04:39:47.502Z,0.90
2022-10-09T04:40:08.088Z,1.00
2022-10-09T04:40:28.668Z,1.00
2022-10-09T04:40:49.248Z,1.10
2022-10-09T04:41:09.835Z,2.00
2022-10-09T04:41:33.523Z,2.30
2022-10-09T04:41:50.821Z,1.40
2022-10-09T04:42:11.401Z,1.10
2022-10-09T04:42:31.986Z,1.60
2022-10-09T04:42:52.583Z,1.80
2022-10-09T04:43:13.164Z,1.50
2022-10-09T04:43:33.749Z,1.30
2022-10-09T04:43:54.332Z,1.40
2022-10-09T04:44:14.926Z,1.30
2022-10-09T04:44:35.509Z,1.10
2022-10-09T04:44:56.093Z,1.20
2022-10-09T04:45:16.672Z,1.20
2022-10-09T04:45:37.314Z,1.10
2022-10-09T04:45:57.935Z,1.20
2022-10-09T04:46:18.608Z,1.30
2022-10-09T04:46:39.177Z,1.10
2022-10-09T04:46:59.777Z,1.10
2022-10-09T04:47:20.338Z,1.00
2022-10-09T04:47:40.918Z,1.20
2022-10-09T04:48:01.503Z,1.00
2022-10-09T04:48:22.084Z,1.00
2022-10-09T04:48:42.685Z,1.00
2022-10-09T04:49:03.251Z,1.00
2022-10-09T04:49:23.658Z,1.30
2022-10-09T04:49:44.237Z,1.10
2022-10-09T04:50:04.631Z,1.00
2022-10-09T04:50:25.208Z,1.10
2022-10-09T04:50:45.790Z,1.10
2022-10-09T04:51:06.370Z,1.10
2022-10-09T04:51:26.762Z,1.10
2022-10-09T04:51:47.346Z,1.30
2022-10-09T04:52:07.924Z,1.30
2022-10-09T04:52:28.506Z,1.10
2022-10-09T04:52:49.177Z,1.00
2022-10-09T04:53:09.906Z,1.10
2022-10-09T04:53:30.300Z,1.30
2022-10-09T04:53:50.881Z,1.20
2022-10-09T04:54:11.462Z,1.10
2022-10-09T04:54:31.872Z,1.00
2022-10-09T04:54:52.455Z,0.90
2022-10-09T04:55:13.036Z,0.90
2022-10-09T04:56:20.980Z,1.20
2022-10-09T04:56:41.368Z,1.30
2022-10-09T04:57:01.957Z,1.30
2022-10-09T04:57:22.542Z,1.20
2022-10-09T04:57:43.119Z,1.10
2022-10-09T04:58:03.697Z,1.20
2022-10-09T04:58:24.280Z,1.50
2022-10-09T04:58:44.863Z,1.30
2022-10-09T04:59:05.444Z,1.50
2022-10-09T04:59:26.024Z,1.20
2022-10-09T04:59:46.623Z,1.10
2022-10-09T05:00:07.210Z,1.30
2022-10-09T05:00:27.795Z,1.40
2022-10-09T05:00:48.274Z,1.40
2022-10-09T05:01:08.979Z,1.30
2022-10-09T05:01:32.028Z,1.30
2022-10-09T05:01:50.085Z,1.10
2022-10-09T05:02:10.781Z,1.40
2022-10-09T05:02:31.405Z,1.10
2022-10-09T05:02:52.272Z,1.30
2022-10-09T05:03:12.983Z,1.30
2022-10-09T05:03:33.574Z,1.20
2022-10-09T05:03:54.155Z,1.30
2022-10-09T05:04:14.564Z,1.50
2022-10-09T05:04:35.148Z,1.30
2022-10-09T05:04:55.724Z,1.20
2022-10-09T05:05:16.306Z,1.40
2022-10-09T05:05:36.889Z,1.10
2022-10-09T05:05:57.474Z,1.30
2022-10-09T05:06:18.054Z,1.30
2022-10-09T05:06:38.637Z,1.40
2022-10-09T05:06:59.223Z,1.30
2022-10-09T05:07:19.621Z,1.20
2022-10-09T05:07:40.196Z,1.30
2022-10-09T05:08:00.792Z,1.10
2022-10-09T05:08:21.371Z,1.20
2022-10-09T05:08:41.954Z,1.30
2022-10-09T05:09:02.536Z,1.20
2022-10-09T05:09:23.133Z,1.00
2022-10-09T05:09:43.712Z,1.20
2022-10-09T05:10:04.295Z,1.40
2022-10-09T05:10:24.875Z,1.20
2022-10-09T05:10:45.457Z,1.20
2022-10-09T05:11:06.040Z,1.20
2022-10-09T05:11:26.621Z,1.30
2022-10-09T05:11:47.198Z,1.30
2022-10-09T05:12:07.782Z,1.60
2022-10-09T05:12:28.365Z,1.40
2022-10-09T05:12:49.230Z,1.40
2022-10-09T05:13:09.341Z,1.40
2022-10-09T05:13:29.926Z,1.40
2022-10-09T05:13:50.511Z,1.40
2022-10-09T05:14:11.104Z,1.40
2022-10-09T05:14:31.690Z,1.40
2022-10-09T05:14:52.264Z,1.40
2022-10-09T05:15:12.841Z,1.40
2022-10-09T05:15:33.423Z,1.40
2022-10-09T05:15:54.003Z,1.30
2022-10-09T05:16:14.714Z,1.10
2022-10-09T05:16:49.397Z,1.10
2022-10-09T05:17:13.212Z,1.30
2022-10-09T05:17:18.725Z,1.40
2022-10-09T05:17:36.583Z,1.10
2022-10-09T05:17:57.140Z,1.20
2022-10-09T05:18:17.726Z,1.20
2022-10-09T05:18:38.306Z,1.20
2022-10-09T05:18:58.899Z,1.50
2022-10-09T05:19:19.487Z,1.40
2022-10-09T05:19:40.073Z,1.30
2022-10-09T05:20:00.464Z,1.20
2022-10-09T05:20:21.052Z,1.40
2022-10-09T05:20:41.630Z,1.40
2022-10-09T05:21:02.224Z,1.30
2022-10-09T05:21:22.806Z,1.40
2022-10-09T05:21:43.387Z,1.50
2022-10-09T05:22:03.976Z,1.40
2022-10-09T05:22:24.559Z,1.30
2022-10-09T05:22:45.142Z,1.30
2022-10-09T05:23:05.725Z,1.40
2022-10-09T05:23:26.306Z,1.40
2022-10-09T05:23:46.702Z,1.40
2022-10-09T05:24:10.315Z,1.50
2022-10-09T05:24:31.137Z,1.70
2022-10-09T05:24:51.526Z,1.60
2022-10-09T05:25:12.112Z,1.40
2022-10-09T05:25:32.695Z,1.40
2022-10-09T05:25:53.276Z,1.50
2022-10-09T05:26:13.855Z,1.50
2022-10-09T05:26:34.438Z,1.50
2022-10-09T05:26:55.025Z,1.60
2022-10-09T05:27:15.413Z,1.50
2022-10-09T05:27:35.996Z,1.40
2022-10-09T05:27:56.576Z,1.30
2022-10-09T05:28:17.248Z,1.40
2022-10-09T05:28:37.871Z,1.60
2022-10-09T05:28:58.417Z,1.40
2022-10-09T05:29:19.012Z,1.40
2022-10-09T05:29:39.597Z,1.40
2022-10-09T05:30:00.178Z,1.70
2022-10-09T05:30:20.760Z,1.40
2022-10-09T05:30:41.346Z,1.30
2022-10-09T05:31:01.929Z,1.30
2022-10-09T05:31:22.617Z,1.70
2022-10-09T05:31:48.355Z,1.60
2022-10-09T05:32:03.719Z,1.30
2022-10-09T05:32:24.321Z,1.40
2022-10-09T05:32:44.880Z,1.50
2022-10-09T05:33:05.458Z,1.50
2022-10-09T05:33:26.039Z,1.40
2022-10-09T05:33:46.620Z,1.50
2022-10-09T05:34:07.215Z,1.50
2022-10-09T05:34:27.798Z,1.30
2022-10-09T05:34:48.376Z,1.40
2022-10-09T05:35:08.960Z,1.30
2022-10-09T05:35:29.545Z,1.40
2022-10-09T05:35:50.130Z,1.40
2022-10-09T05:36:10.709Z,1.40
2022-10-09T05:36:31.295Z,1.30
2022-10-09T05:36:51.879Z,1.20
2022-10-09T05:37:12.274Z,1.30
2022-10-09T05:37:32.853Z,1.30
2022-10-09T05:37:53.440Z,1.30
2022-10-09T05:38:13.836Z,1.50
2022-10-09T05:38:34.234Z,1.30
2022-10-09T05:38:54.814Z,1.20
2022-10-09T05:39:15.412Z,1.30
2022-10-09T05:39:36.002Z,1.40
2022-10-09T05:39:56.574Z,1.30
2022-10-09T05:40:16.978Z,1.40
2022-10-09T05:40:37.552Z,1.50
2022-10-09T05:40:57.949Z,1.40
2022-10-09T05:41:18.529Z,1.30
2022-10-09T05:41:39.110Z,1.40
2022-10-09T05:41:59.688Z,1.30
2022-10-09T05:42:20.270Z,1.50
2022-10-09T05:42:40.854Z,1.80
2022-10-09T05:43:01.436Z,1.70
2022-10-09T05:43:22.019Z,1.30
2022-10-09T05:43:42.605Z,1.30
2022-10-09T05:44:03.195Z,1.30
2022-10-09T05:44:23.775Z,1.20
2022-10-09T05:44:44.357Z,1.30
2022-10-09T05:45:04.945Z,1.40
2022-10-09T05:45:25.524Z,1.70
2022-10-09T05:45:46.178Z,1.70
2022-10-09T05:46:06.797Z,1.20
2022-10-09T05:46:27.379Z,1.30
2022-10-09T05:46:47.957Z,1.70
2022-10-09T05:47:08.537Z,1.50
2022-10-09T05:47:29.144Z,1.50
2022-10-09T05:48:37.483Z,1.30
2022-10-09T05:48:58.090Z,1.20
2022-10-09T05:49:18.670Z,1.40
2022-10-09T05:49:39.247Z,1.50
2022-10-09T05:49:59.830Z,1.40
2022-10-09T05:50:20.411Z,1.30
2022-10-09T05:50:40.993Z,1.30
2022-10-09T05:51:01.578Z,1.40
2022-10-09T05:51:22.159Z,1.30
2022-10-09T05:51:42.779Z,1.20
2022-10-09T05:52:03.334Z,1.40
2022-10-09T05:52:23.914Z,1.50
2022-10-09T05:52:44.504Z,1.50
2022-10-09T05:53:05.090Z,1.20
2022-10-09T05:53:25.491Z,1.20
2022-10-09T05:53:46.076Z,1.30
2022-10-09T05:54:06.672Z,1.20
2022-10-09T05:54:27.069Z,1.20
2022-10-09T05:54:47.647Z,1.40
2022-10-09T05:55:08.231Z,1.40
2022-10-09T05:56:16.124Z,1.10
2022-10-09T05:56:36.713Z,1.40
2022-10-09T05:56:57.294Z,1.30
2022-10-09T05:57:17.876Z,1.30
2022-10-09T05:57:38.464Z,1.10
2022-10-09T05:57:59.049Z,1.30
2022-10-09T05:58:19.627Z,1.30
2022-10-09T05:58:40.213Z,1.30
2022-10-09T05:59:00.792Z,1.40
2022-10-09T05:59:21.388Z,1.60
2022-10-09T05:59:41.970Z,1.60
2022-10-09T06:00:02.549Z,1.60
2022-10-09T06:00:23.133Z,1.60
2022-10-09T06:00:43.718Z,1.60
2022-10-09T06:01:04.372Z,1.70
2022-10-09T06:01:25.038Z,1.80
2022-10-09T06:01:45.700Z,1.70
2022-10-09T06:02:06.358Z,1.70
2022-10-09T06:02:26.729Z,1.80
2022-10-09T06:02:47.515Z,1.60
2022-10-09T06:03:08.320Z,1.60
2022-10-09T06:04:16.217Z,1.70
2022-10-09T06:04:36.802Z,1.40
2022-10-09T06:04:57.383Z,1.50
2022-10-09T06:05:17.969Z,1.40
2022-10-09T06:05:38.550Z,1.20
2022-10-09T06:05:59.127Z,1.30
2022-10-09T06:06:19.714Z,1.40
2022-10-09T06:06:40.290Z,1.40
2022-10-09T06:08:36.003Z,1.40
2022-10-09T06:08:56.599Z,1.50
2022-10-09T06:09:17.187Z,1.80
2022-10-09T06:09:37.583Z,1.70
2022-10-09T06:09:58.166Z,1.70
2022-10-09T06:10:18.755Z,1.90
2022-10-09T06:10:39.337Z,1.90
2022-10-09T06:10:59.931Z,1.80
2022-10-09T06:11:20.520Z,1.80
2022-10-09T06:11:41.103Z,1.50
2022-10-09T06:12:01.684Z,1.70
2022-10-09T06:12:22.273Z,1.90
2022-10-09T06:12:42.855Z,1.90
2022-10-09T06:13:03.442Z,2.00
2022-10-09T06:13:24.025Z,1.80
2022-10-09T06:13:44.602Z,1.80
2022-10-09T06:14:05.191Z,1.60
2022-10-09T06:14:25.781Z,1.60
2022-10-09T06:14:46.363Z,1.80
2022-10-09T06:15:54.725Z,1.90
2022-10-09T06:16:15.379Z,1.90
2022-10-09T06:16:36.016Z,2.20
2022-10-09T06:16:56.639Z,1.90
2022-10-09T06:17:17.192Z,1.90
2022-10-09T06:17:37.773Z,1.90
2022-10-09T06:17:58.376Z,1.80
2022-10-09T06:18:18.932Z,1.80
2022-10-09T06:18:39.521Z,1.80
2022-10-09T06:19:00.109Z,1.70
2022-10-09T06:19:20.695Z,1.80
2022-10-09T06:19:41.268Z,1.80
2022-10-09T06:20:01.850Z,1.80
2022-10-09T06:20:22.433Z,1.80
2022-10-09T06:20:43.019Z,1.60
2022-10-09T06:21:03.596Z,1.70
2022-10-09T06:21:24.179Z,1.90
2022-10-09T06:21:44.758Z,1.90
2022-10-09T06:22:05.339Z,1.90
2022-10-09T06:22:25.923Z,1.70
2022-10-09T06:22:46.843Z,1.90
2022-10-09T06:23:07.604Z,1.60
2022-10-09T06:23:28.193Z,1.70
2022-10-09T06:23:48.776Z,1.70
2022-10-09T06:24:57.165Z,1.80
2022-10-09T06:25:17.744Z,1.70
2022-10-09T06:25:38.324Z,1.60
2022-10-09T06:25:58.904Z,1.90
2022-10-09T06:26:19.490Z,1.90
2022-10-09T06:26:40.068Z,2.00
2022-10-09T06:27:47.946Z,2.00
2022-10-09T06:28:08.571Z,1.90
2022-10-09T06:28:29.029Z,1.80
2022-10-09T06:28:49.721Z,1.90
2022-10-09T06:29:11.969Z,1.80
2022-10-09T06:29:32.551Z,1.80
2022-10-09T06:29:53.131Z,1.90
2022-10-09T06:30:13.712Z,1.80
2022-10-09T06:30:38.535Z,2.00
2022-10-09T06:30:54.553Z,1.90
2022-10-09T06:31:15.275Z,1.80
2022-10-09T06:31:35.875Z,2.10
2022-10-09T06:31:56.464Z,1.70
2022-10-09T06:32:17.040Z,2.00
2022-10-09T06:32:37.622Z,2.10
2022-10-09T06:33:45.531Z,2.10
2022-10-09T06:34:06.104Z,1.90
2022-10-09T06:34:26.684Z,2.00
2022-10-09T06:35:34.588Z,2.10
2022-10-09T06:36:03.893Z,2.20
2022-10-09T06:36:15.580Z,1.80
2022-10-09T06:36:36.167Z,2.00
2022-10-09T06:36:56.755Z,2.30
2022-10-09T06:37:17.335Z,1.90
2022-10-09T06:37:37.919Z,2.00
2022-10-09T06:37:58.499Z,1.90
2022-10-09T06:39:06.404Z,2.10
2022-10-09T06:39:26.985Z,2.00
2022-10-09T06:39:47.567Z,1.90
2022-10-09T06:40:08.152Z,2.20
2022-10-09T06:40:28.743Z,2.10
2022-10-09T06:40:49.323Z,1.90
2022-10-09T06:41:09.914Z,1.90
2022-10-09T06:41:30.496Z,1.70
2022-10-09T06:41:51.086Z,1.70
2022-10-09T06:42:11.478Z,1.90
2022-10-09T06:42:31.869Z,2.00
2022-10-09T06:42:52.454Z,2.10
2022-10-09T06:43:13.047Z,2.10
2022-10-09T06:43:33.623Z,2.00
2022-10-09T06:43:54.211Z,1.80
2022-10-09T06:44:16.884Z,1.90